Time;durP1;ratioP1;P1;durP2;ratioP2;P2;SDS_P1;SDS_P2;PMS_P1;PMS_P2;Temp;Humidity;BMP_temperature;BMP_pressure;BME280_temperature;BME280_humidity;BME280_pressure;Samples;Min_cycle;Max_cycle;Signal;HPM_P1;HPM_P2
2023/08/14 00:00:34;;;;;;;10.30;5.22;;;26.10;51.70;;;;;;6188249;23;20013;-73
2023/08/14 00:03:01;;;;;;;8.20;5.20;;;26.10;52.00;;;;;;6214396;23;20322;-72
2023/08/14 00:05:26;;;;;;;9.05;5.28;;;26.10;52.60;;;;;;6188582;23;20429;-74
2023/08/14 00:07:52;;;;;;;7.22;4.78;;;26.00;52.00;;;;;;6215066;23;19996;-72
2023/08/14 00:10:18;;;;;;;7.03;5.25;;;25.90;51.80;;;;;;6215222;23;20011;-72
2023/08/14 00:12:44;;;;;;;10.65;5.32;;;25.90;52.20;;;;;;6188735;23;20008;-73
2023/08/14 00:15:10;;;;;;;10.82;5.20;;;25.90;52.40;;;;;;6188542;23;20024;-73
2023/08/14 00:17:36;;;;;;;7.97;4.80;;;25.90;52.40;;;;;;6215131;23;20001;-73
2023/08/14 00:20:04;;;;;;;11.40;5.43;;;25.90;52.20;;;;;;6214991;23;20036;-73
2023/08/14 00:22:31;;;;;;;8.65;5.30;;;25.80;52.30;;;;;;6214899;23;20458;-73
2023/08/14 00:24:57;;;;;;;7.18;5.43;;;25.70;51.90;;;;;;6215236;23;20063;-74
2023/08/14 00:27:24;;;;;;;9.05;4.93;;;25.70;52.20;;;;;;6215110;23;20000;-73
2023/08/14 00:29:50;;;;;;;8.40;4.82;;;25.60;52.30;;;;;;6214970;23;20012;-72
2023/08/14 00:32:16;;;;;;;9.50;5.20;;;25.60;52.10;;;;;;6188170;23;20454;-73
2023/08/14 00:34:42;;;;;;;8.55;4.45;;;25.60;52.00;;;;;;6214851;23;20013;-74
2023/08/14 00:37:08;;;;;;;7.05;5.10;;;25.60;52.00;;;;;;6188274;23;20001;-73
2023/08/14 00:39:34;;;;;;;7.05;4.35;;;25.50;52.00;;;;;;6217709;23;20330;-72
2023/08/14 00:42:00;;;;;;;9.25;4.70;;;25.50;52.60;;;;;;6217938;23;19997;-73
2023/08/14 00:44:28;;;;;;;7.10;4.72;;;25.40;52.40;;;;;;6218206;23;20028;-73
2023/08/14 00:46:54;;;;;;;8.40;4.80;;;25.40;52.40;;;;;;6218061;23;19997;-73
2023/08/14 00:49:20;;;;;;;8.45;4.63;;;25.30;52.30;;;;;;6218600;23;20011;-74
2023/08/14 00:51:46;;;;;;;6.68;4.47;;;25.30;52.20;;;;;;6191387;23;20327;-73
2023/08/14 00:54:12;;;;;;;9.57;4.93;;;25.30;52.50;;;;;;6218284;23;20092;-74
2023/08/14 00:56:38;;;;;;;8.57;4.40;;;25.20;52.20;;;;;;6191479;23;20012;-73
2023/08/14 00:59:04;;;;;;;6.38;4.15;;;25.20;52.20;;;;;;6218208;23;20481;-74
2023/08/14 01:01:30;;;;;;;6.72;4.47;;;25.20;52.20;;;;;;6218129;23;20071;-73
2023/08/14 01:03:56;;;;;;;7.47;4.13;;;25.20;52.20;;;;;;6191170;23;20055;-72
2023/08/14 01:06:22;;;;;;;6.47;3.88;;;25.10;52.10;;;;;;6217920;23;20461;-73
2023/08/14 01:08:48;;;;;;;6.28;4.20;;;25.10;52.20;;;;;;6218161;23;20028;-73
2023/08/14 01:11:21;;;;;;;6.10;4.22;;;25.10;51.90;;;;;;6191505;23;20008;-73
2023/08/14 01:14:04;;;;;;;6.97;4.28;;;25.10;52.20;;;;;;6218039;23;20036;-73
2023/08/14 01:16:35;;;;;;;10.07;4.43;;;25.00;52.20;;;;;;6218774;23;20001;-73
2023/08/14 01:19:05;;;;;;;6.10;4.40;;;25.00;52.30;;;;;;6218373;23;20376;-73
2023/08/14 01:21:45;;;;;;;6.00;4.07;;;25.10;52.00;;;;;;6218182;23;20000;-74
2023/08/14 01:24:18;;;;;;;6.72;4.35;;;25.10;52.50;;;;;;6191212;23;20466;-73
2023/08/14 01:26:44;;;;;;;8.77;4.10;;;25.10;51.80;;;;;;6218066;23;20076;-73
2023/08/14 01:29:10;;;;;;;7.47;4.45;;;25.00;52.50;;;;;;6218329;23;20282;-74
2023/08/14 01:31:36;;;;;;;6.05;4.28;;;25.00;52.40;;;;;;6218172;23;20005;-72
2023/08/14 01:34:02;;;;;;;7.47;4.57;;;24.90;52.90;;;;;;6190997;23;20020;-73
2023/08/14 01:36:36;;;;;;;12.13;4.55;;;24.90;52.70;;;;;;6218091;23;20044;-73
2023/08/14 01:39:09;;;;;;;7.32;4.60;;;24.80;52.60;;;;;;6218040;23;20001;-73
2023/08/14 01:42:11;;;;;;;8.32;4.70;;;24.80;53.50;;;;;;6218557;23;20004;-73
2023/08/14 01:44:39;;;;;;;5.80;4.25;;;24.80;53.20;;;;;;6189675;23;20008;-73
2023/08/14 01:47:10;;;;;;;5.85;4.38;;;24.80;53.10;;;;;;6217861;23;20000;-74
2023/08/14 01:49:37;;;;;;;5.68;3.95;;;24.80;53.30;;;;;;6217551;23;20004;-73
2023/08/14 01:52:05;;;;;;;9.32;4.68;;;24.80;53.50;;;;;;6216044;23;20004;-73
2023/08/14 01:54:31;;;;;;;5.50;4.00;;;24.70;53.50;;;;;;6216377;23;20013;-73
2023/08/14 01:56:57;;;;;;;8.70;4.38;;;24.70;53.40;;;;;;6216524;23;20035;-75
2023/08/14 01:59:37;;;;;;;9.63;4.53;;;24.70;53.70;;;;;;6216347;23;20005;-73
2023/08/14 02:02:04;;;;;;;8.63;4.43;;;24.70;53.20;;;;;;6189525;23;20035;-72
2023/08/14 02:04:30;;;;;;;7.03;4.57;;;24.70;53.40;;;;;;6215971;23;20079;-73
2023/08/14 02:06:55;;;;;;;6.10;4.22;;;24.70;53.40;;;;;;6189678;23;20386;-73
2023/08/14 02:09:21;;;;;;;7.63;4.45;;;24.70;53.20;;;;;;6216276;23;20004;-73
2023/08/14 02:11:47;;;;;;;5.68;4.18;;;24.80;53.10;;;;;;6216120;23;20449;-73
2023/08/14 02:14:13;;;;;;;8.15;4.60;;;24.70;53.30;;;;;;6189326;23;20017;-73
2023/08/14 02:16:39;;;;;;;7.72;4.47;;;24.70;53.40;;;;;;6215923;23;20001;-72
2023/08/14 02:19:05;;;;;;;8.55;4.68;;;24.70;53.60;;;;;;6216222;23;20005;-73
2023/08/14 02:21:30;;;;;;;8.68;4.70;;;24.70;53.70;;;;;;6216150;23;19997;-73
2023/08/14 02:23:56;;;;;;;6.35;4.85;;;24.60;53.80;;;;;;6216291;23;20001;-73
2023/08/14 02:26:22;;;;;;;6.85;5.03;;;24.50;54.80;;;;;;6216136;23;20004;-73
2023/08/14 02:28:48;;;;;;;7.07;4.85;;;24.40;55.10;;;;;;6215710;23;19997;-72
2023/08/14 02:31:14;;;;;;;11.30;5.30;;;24.30;55.60;;;;;;6215781;23;20087;-73
2023/08/14 02:33:40;;;;;;;8.48;4.80;;;24.20;55.80;;;;;;6215879;23;20004;-72
2023/08/14 02:36:05;;;;;;;9.20;5.20;;;24.20;56.50;;;;;;6215767;23;20005;-73
2023/08/14 02:38:31;;;;;;;7.45;5.38;;;24.10;56.20;;;;;;6215950;23;20411;-73
2023/08/14 02:41:01;;;;;;;7.13;4.72;;;24.10;56.60;;;;;;6215997;23;20079;-74
2023/08/14 02:43:27;;;;;;;10.98;4.97;;;24.10;56.60;;;;;;6189073;23;20008;-73
2023/08/14 02:45:52;;;;;;;8.77;5.47;;;24.10;56.70;;;;;;6215555;23;20001;-72
2023/08/14 02:48:19;;;;;;;6.45;4.70;;;24.20;56.80;;;;;;6215670;23;20031;-73
2023/08/14 02:50:45;;;;;;;7.05;4.97;;;24.20;57.10;;;;;;6189335;23;20316;-73
2023/08/14 02:53:11;;;;;;;7.82;4.78;;;24.20;57.00;;;;;;6215711;23;20008;-73
2023/08/14 02:55:37;;;;;;;7.70;4.93;;;24.20;57.10;;;;;;6215610;23;20441;-73
2023/08/14 02:58:03;;;;;;;10.68;4.75;;;24.20;56.80;;;;;;6188961;23;20009;-73
2023/08/14 03:00:29;;;;;;;8.32;4.95;;;24.20;56.90;;;;;;6215477;23;20032;-73
2023/08/14 03:02:54;;;;;;;9.40;5.07;;;24.20;57.10;;;;;;6215554;23;20024;-72
2023/08/14 03:05:20;;;;;;;9.95;5.38;;;24.20;57.10;;;;;;6215504;23;20024;-73
2023/08/14 03:07:46;;;;;;;8.32;4.80;;;24.10;57.20;;;;;;6215609;23;20007;-73
2023/08/14 03:10:12;;;;;;;9.63;4.85;;;24.20;57.40;;;;;;6215540;23;20000;-74
2023/08/14 03:12:38;;;;;;;7.15;4.75;;;24.20;57.40;;;;;;6215742;23;20001;-74
2023/08/14 03:15:05;;;;;;;8.98;4.60;;;24.20;57.50;;;;;;6215605;23;20435;-73
2023/08/14 03:17:31;;;;;;;9.27;5.10;;;24.20;57.50;;;;;;6215730;23;20453;-73
2023/08/14 03:19:57;;;;;;;6.82;4.68;;;24.20;57.40;;;;;;6215261;23;20000;-74
2023/08/14 03:22:23;;;;;;;8.88;5.00;;;24.20;57.30;;;;;;6215299;23;19997;-73
2023/08/14 03:24:48;;;;;;;6.82;4.43;;;24.20;57.50;;;;;;6215514;23;20431;-73
2023/08/14 03:27:15;;;;;;;6.32;4.57;;;24.20;57.30;;;;;;6215219;23;19996;-73
2023/08/14 03:29:40;;;;;;;6.72;4.97;;;24.20;57.70;;;;;;6215231;23;20382;-73
2023/08/14 03:32:06;;;;;;;8.10;5.07;;;24.00;57.60;;;;;;6215298;23;19997;-73
2023/08/14 03:34:32;;;;;;;7.85;4.72;;;24.00;57.80;;;;;;6215279;23;20015;-73
2023/08/14 03:36:58;;;;;;;7.70;5.00;;;24.00;57.80;;;;;;6215541;23;20001;-73
2023/08/14 03:39:24;;;;;;;6.68;4.72;;;23.90;57.90;;;;;;6188578;23;20024;-73
2023/08/14 03:41:50;;;;;;;8.20;5.10;;;23.90;58.00;;;;;;6215329;23;20331;-73
2023/08/14 03:44:15;;;;;;;6.40;4.80;;;24.00;57.90;;;;;;6214990;23;20004;-74
2023/08/14 03:46:41;;;;;;;8.52;5.32;;;23.90;58.10;;;;;;6215214;23;20007;-73
2023/08/14 03:49:07;;;;;;;6.47;4.55;;;24.00;58.20;;;;;;6215341;23;20012;-73
2023/08/14 03:51:33;;;;;;;7.00;4.95;;;24.00;58.10;;;;;;6215481;23;20090;-74
2023/08/14 03:53:59;;;;;;;7.18;4.40;;;24.00;58.20;;;;;;6215105;23;20083;-73
2023/08/14 03:56:24;;;;;;;5.75;4.15;;;24.00;58.30;;;;;;6214970;23;20001;-72
2023/08/14 03:58:50;;;;;;;9.55;4.75;;;24.00;58.10;;;;;;6215167;23;20418;-72
2023/08/14 04:01:16;;;;;;;7.30;4.97;;;24.00;58.20;;;;;;6215584;23;20078;-72
2023/08/14 04:03:42;;;;;;;8.13;5.03;;;24.00;58.70;;;;;;6188601;23;20021;-74
2023/08/14 04:06:08;;;;;;;7.35;4.90;;;23.90;58.70;;;;;;6188544;23;20462;-73
2023/08/14 04:08:33;;;;;;;10.63;5.95;;;23.80;58.90;;;;;;6215150;23;20005;-73
2023/08/14 04:10:59;;;;;;;10.23;5.85;;;23.80;58.80;;;;;;6188282;23;20004;-73
2023/08/14 04:13:26;;;;;;;9.25;5.78;;;23.80;58.90;;;;;;6214710;23;20039;-73
2023/08/14 04:15:59;;;;;;;8.73;5.47;;;23.90;58.80;;;;;;6214917;23;20036;-73
2023/08/14 04:18:28;;;;;;;8.57;4.90;;;23.80;58.70;;;;;;6215119;23;19996;-73
2023/08/14 04:20:54;;;;;;;8.05;5.35;;;23.80;58.60;;;;;;6215086;23;20378;-73
2023/08/14 04:23:21;;;;;;;7.40;4.90;;;23.80;58.40;;;;;;6214846;23;19996;-73
2023/08/14 04:25:47;;;;;;;9.30;4.93;;;23.80;58.40;;;;;;6215024;23;20457;-73
2023/08/14 04:28:13;;;;;;;7.85;4.80;;;23.80;58.50;;;;;;6188319;23;20075;-73
2023/08/14 04:30:38;;;;;;;10.20;4.93;;;23.80;58.40;;;;;;6188253;23;20092;-74
2023/08/14 04:33:04;;;;;;;7.95;5.10;;;23.80;58.30;;;;;;6214645;23;19996;-72
2023/08/14 04:35:30;;;;;;;7.10;4.88;;;23.70;58.10;;;;;;6188153;23;20044;-74
2023/08/14 04:37:56;;;;;;;8.63;4.88;;;23.70;58.30;;;;;;6215033;23;20028;-73
2023/08/14 04:40:22;;;;;;;9.27;4.95;;;23.80;58.40;;;;;;6214483;23;20007;-73
2023/08/14 04:42:47;;;;;;;7.25;4.60;;;23.70;58.30;;;;;;6214607;23;20003;-73
2023/08/14 04:45:13;;;;;;;6.85;4.60;;;23.70;58.70;;;;;;6187954;23;20096;-73
2023/08/14 04:47:39;;;;;;;9.30;4.95;;;23.80;58.50;;;;;;6214637;23;20004;-73
2023/08/14 04:50:06;;;;;;;8.70;5.07;;;23.80;59.10;;;;;;6187755;23;20013;-73
2023/08/14 04:52:32;;;;;;;8.88;4.30;;;23.70;58.50;;;;;;6214664;23;20039;-73
2023/08/14 04:54:58;;;;;;;8.77;4.40;;;23.70;58.50;;;;;;6214299;23;20008;-73
2023/08/14 04:57:24;;;;;;;6.80;4.18;;;23.70;58.40;;;;;;6214809;23;20375;-73
2023/08/14 04:59:49;;;;;;;7.80;4.50;;;23.70;58.50;;;;;;6187866;23;20008;-73
2023/08/14 05:02:18;;;;;;;7.43;4.80;;;23.80;58.60;;;;;;6187888;23;20000;-74
2023/08/14 05:04:44;;;;;;;7.97;4.80;;;23.80;58.70;;;;;;6182638;23;20456;-73
2023/08/14 05:07:10;;;;;;;10.85;4.90;;;23.90;58.70;;;;;;6184258;23;20033;-74
2023/08/14 05:09:36;;;;;;;7.80;4.30;;;23.90;58.50;;;;;;6184479;23;20339;-73
2023/08/14 05:12:05;;;;;;;7.30;4.88;;;23.90;58.50;;;;;;6184492;23;20001;-73
2023/08/14 05:14:31;;;;;;;7.32;4.72;;;23.90;58.50;;;;;;6157807;23;20017;-73
2023/08/14 05:16:59;;;;;;;9.85;4.60;;;23.90;58.40;;;;;;6184534;23;20009;-73
2023/08/14 05:19:28;;;;;;;7.07;4.55;;;23.90;58.50;;;;;;6184200;23;20060;-73
2023/08/14 05:21:57;;;;;;;8.07;5.10;;;23.90;59.20;;;;;;6184398;23;20011;-74
2023/08/14 05:24:23;;;;;;;7.07;4.68;;;23.90;58.60;;;;;;6184474;23;20332;-75
2023/08/14 05:26:50;;;;;;;7.20;4.82;;;24.00;58.60;;;;;;6185874;23;20435;-72
2023/08/14 05:29:19;;;;;;;10.18;4.72;;;24.00;58.50;;;;;;6186547;23;20094;-73
2023/08/14 05:31:45;;;;;;;9.73;4.57;;;24.20;58.40;;;;;;6186237;23;20338;-73
2023/08/14 05:34:11;;;;;;;10.43;4.50;;;24.40;58.30;;;;;;6185882;23;20051;-73
2023/08/14 05:36:39;;;;;;;8.23;4.85;;;24.70;57.90;;;;;;6185709;23;20012;-73
2023/08/14 05:39:08;;;;;;;7.28;4.68;;;24.90;57.50;;;;;;6185977;23;20001;-72
2023/08/14 05:41:34;;;;;;;7.75;5.00;;;25.10;57.20;;;;;;6186330;23;20001;-73
2023/08/14 05:44:00;;;;;;;8.07;4.53;;;25.50;56.70;;;;;;6186266;23;20001;-72
2023/08/14 05:46:26;;;;;;;9.43;4.57;;;25.60;56.30;;;;;;6186000;23;20001;-74
2023/08/14 05:48:52;;;;;;;8.63;5.00;;;25.80;55.70;;;;;;6186148;23;20072;-73
2023/08/14 05:51:18;;;;;;;8.70;4.55;;;26.10;55.30;;;;;;6186719;23;20001;-72
2023/08/14 05:53:44;;;;;;;18.15;14.10;;;26.30;54.70;;;;;;6185909;23;20009;-73
2023/08/14 05:56:10;;;;;;;11.73;5.60;;;26.50;54.30;;;;;;6185854;23;20431;-73
2023/08/14 05:58:36;;;;;;;9.23;4.57;;;26.80;53.70;;;;;;6185871;23;20001;-73
2023/08/14 06:01:02;;;;;;;13.65;5.03;;;27.00;53.30;;;;;;6186040;23;20043;-73
2023/08/14 06:03:28;;;;;;;8.50;4.47;;;27.20;52.80;;;;;;6179976;23;20018;-73
2023/08/14 06:05:54;;;;;;;13.45;5.05;;;27.40;52.40;;;;;;6156216;23;20340;-73
2023/08/14 06:08:20;;;;;;;8.85;4.78;;;27.70;52.00;;;;;;6156004;23;19998;-73
2023/08/14 06:10:46;;;;;;;11.95;4.65;;;28.10;51.50;;;;;;6155944;23;20069;-73
2023/08/14 06:13:12;;;;;;;8.25;4.53;;;28.40;50.50;;;;;;6155949;23;20002;-74
2023/08/14 06:15:37;;;;;;;7.57;4.97;;;28.50;50.60;;;;;;6156031;23;20033;-72
2023/08/14 06:18:07;;;;;;;9.48;4.45;;;28.80;49.70;;;;;;6155919;23;20025;-73
2023/08/14 06:20:32;;;;;;;7.20;4.30;;;29.00;49.60;;;;;;6155841;23;20336;-73
2023/08/14 06:22:58;;;;;;;7.30;4.40;;;29.20;48.80;;;;;;6156242;23;20013;-73
2023/08/14 06:25:28;;;;;;;9.77;4.38;;;29.40;48.60;;;;;;6156044;23;20004;-74
2023/08/14 06:27:54;;;;;;;8.85;4.82;;;29.60;48.40;;;;;;6156084;23;20008;-74
2023/08/14 06:30:24;;;;;;;6.88;4.80;;;29.80;48.10;;;;;;6155944;23;20001;-72
2023/08/14 06:32:50;;;;;;;9.57;4.25;;;29.90;47.10;;;;;;6156055;23;20001;-74
2023/08/14 06:35:16;;;;;;;7.22;3.90;;;30.20;47.50;;;;;;6155845;23;20020;-74
2023/08/14 06:37:42;;;;;;;7.90;4.22;;;30.30;47.50;;;;;;6129625;23;20383;-73
2023/08/14 06:40:09;;;;;;;6.18;3.95;;;30.60;47.10;;;;;;6129777;23;20018;-74
2023/08/14 06:42:34;;;;;;;6.85;4.20;;;30.60;46.30;;;;;;6155653;23;20084;-73
2023/08/14 06:45:00;;;;;;;8.90;4.28;;;30.70;46.50;;;;;;6155792;23;20001;-73
2023/08/14 06:47:26;;;;;;;7.03;4.22;;;30.70;46.20;;;;;;6156379;23;20024;-73
2023/08/14 06:49:52;;;;;;;8.55;4.45;;;30.80;46.20;;;;;;6129676;23;20440;-74
2023/08/14 06:52:18;;;;;;;6.93;4.47;;;30.90;46.00;;;;;;6156047;23;19998;-73
2023/08/14 06:54:44;;;;;;;9.50;4.35;;;31.10;45.90;;;;;;6129738;23;20028;-73
2023/08/14 06:57:10;;;;;;;8.57;3.97;;;31.20;45.70;;;;;;6155533;23;20060;-72
2023/08/14 06:59:36;;;;;;;9.93;4.20;;;31.20;45.20;;;;;;6129444;23;20021;-73
2023/08/14 07:02:02;;;;;;;8.80;4.22;;;31.20;45.20;;;;;;6155843;23;20029;-73
2023/08/14 07:04:28;;;;;;;8.23;4.40;;;31.20;45.50;;;;;;6192830;23;20032;-73
2023/08/14 07:06:54;;;;;;;8.63;4.30;;;31.20;45.30;;;;;;6215692;23;20008;-74
2023/08/14 07:09:20;;;;;;;8.00;4.53;;;31.20;45.40;;;;;;6215367;23;20419;-73
2023/08/14 07:11:48;;;;;;;10.35;4.78;;;31.30;45.60;;;;;;6215634;23;20067;-74
2023/08/14 07:14:14;;;;;;;6.60;4.32;;;31.40;45.40;;;;;;6215200;23;20027;-74
2023/08/14 07:16:40;;;;;;;12.70;4.47;;;31.60;45.30;;;;;;6215579;23;20405;-74
2023/08/14 07:19:06;;;;;;;9.10;4.00;;;31.60;45.00;;;;;;6215038;23;20007;-73
2023/08/14 07:21:32;;;;;;;7.03;4.07;;;31.60;45.40;;;;;;6215101;23;20419;-73
2023/08/14 07:23:58;;;;;;;5.78;3.92;;;31.70;45.30;;;;;;6215476;23;20010;-74
2023/08/14 07:26:24;;;;;;;7.28;4.05;;;31.80;45.20;;;;;;6215621;23;20020;-75
2023/08/14 07:28:50;;;;;;;9.10;4.00;;;31.90;45.10;;;;;;6188884;23;20147;-73
2023/08/14 07:31:16;;;;;;;7.55;4.47;;;31.90;45.00;;;;;;6215411;23;20034;-72
2023/08/14 07:33:42;;;;;;;10.05;4.88;;;31.80;45.20;;;;;;6215378;23;20011;-72
2023/08/14 07:36:08;;;;;;;11.13;4.20;;;31.80;45.50;;;;;;6215477;23;20005;-73
2023/08/14 07:38:34;;;;;;;6.43;3.83;;;31.80;45.50;;;;;;6188927;23;20009;-74
2023/08/14 07:41:00;;;;;;;6.30;4.20;;;31.80;45.60;;;;;;6215438;23;20119;-73
2023/08/14 07:43:25;;;;;;;6.07;3.70;;;31.80;45.50;;;;;;6188615;23;20044;-73
2023/08/14 07:45:52;;;;;;;11.32;4.38;;;31.70;45.80;;;;;;6215150;23;20011;-75
2023/08/14 07:48:18;;;;;;;6.93;4.05;;;31.60;45.90;;;;;;6215342;23;20036;-74
2023/08/14 07:50:44;;;;;;;7.63;4.30;;;31.60;46.30;;;;;;6215464;23;20335;-73
2023/08/14 07:53:10;;;;;;;8.13;4.40;;;31.60;46.40;;;;;;6215278;23;20024;-73
2023/08/14 07:55:37;;;;;;;10.13;4.40;;;31.60;46.40;;;;;;6215098;23;20447;-74
2023/08/14 07:58:04;;;;;;;5.95;4.25;;;31.60;46.60;;;;;;6215033;23;19996;-74
2023/08/14 08:00:30;;;;;;;7.13;4.18;;;31.50;46.50;;;;;;6215333;23;20499;-74
2023/08/14 08:02:56;;;;;;;8.05;4.32;;;31.50;46.50;;;;;;6188464;23;20028;-73
2023/08/14 08:05:22;;;;;;;8.10;3.92;;;31.40;46.70;;;;;;6188190;23;20027;-73
2023/08/14 08:07:48;;;;;;;8.05;4.93;;;31.20;46.80;;;;;;6215083;23;20004;-74
2023/08/14 08:10:13;;;;;;;8.63;5.97;;;31.10;47.20;;;;;;6215085;23;20057;-74
2023/08/14 08:12:39;;;;;;;8.00;4.50;;;31.00;47.90;;;;;;6214894;23;20411;-72
2023/08/14 08:15:05;;;;;;;8.27;4.55;;;31.10;47.30;;;;;;6214747;23;20013;-73
2023/08/14 08:17:31;;;;;;;6.97;4.65;;;31.10;47.40;;;;;;6215076;23;20000;-73
2023/08/14 08:19:57;;;;;;;6.63;4.38;;;31.00;47.70;;;;;;6188190;23;20096;-73
2023/08/14 08:22:23;;;;;;;7.03;4.45;;;31.00;47.80;;;;;;6214512;23;20115;-73
2023/08/14 08:24:49;;;;;;;8.60;4.43;;;30.90;47.80;;;;;;6188147;23;20044;-73
2023/08/14 08:27:15;;;;;;;7.43;4.60;;;30.80;47.70;;;;;;6214562;23;20036;-74
2023/08/14 08:29:41;;;;;;;7.32;4.97;;;30.80;47.70;;;;;;6214741;23;20419;-74
2023/08/14 08:32:08;;;;;;;5.57;4.03;;;30.70;47.70;;;;;;6214908;23;20345;-73
2023/08/14 08:34:34;;;;;;;8.63;4.53;;;30.70;48.30;;;;;;6187979;23;20099;-74
2023/08/14 08:37:01;;;;;;;5.63;4.20;;;30.60;48.60;;;;;;6214873;23;20430;-73
2023/08/14 08:39:26;;;;;;;8.95;4.82;;;30.50;48.50;;;;;;6214339;23;20004;-72
2023/08/14 08:41:56;;;;;;;9.48;4.97;;;30.50;48.80;;;;;;6188179;23;20020;-73
2023/08/14 08:44:23;;;;;;;9.27;4.53;;;30.60;49.10;;;;;;6187951;23;20008;-72
2023/08/14 08:47:09;;;;;;;6.90;4.88;;;30.50;49.20;;;;;;6188198;23;20044;-74
2023/08/14 08:49:36;;;;;;;7.93;4.43;;;30.60;49.50;;;;;;6187638;23;20407;-73
2023/08/14 08:52:03;;;;;;;9.20;4.60;;;30.50;49.30;;;;;;6214709;23;20012;-73
2023/08/14 08:54:30;;;;;;;10.15;4.78;;;30.40;49.50;;;;;;6214643;23;20518;-73
2023/08/14 08:56:57;;;;;;;6.63;4.10;;;30.40;49.90;;;;;;6214549;23;20407;-74
2023/08/14 08:59:24;;;;;;;7.03;4.50;;;30.40;49.70;;;;;;6214773;23;20048;-74
2023/08/14 09:01:50;;;;;;;10.15;4.15;;;30.30;49.10;;;;;;6216844;23;20075;-73
2023/08/14 09:04:16;;;;;;;7.35;4.30;;;30.30;49.10;;;;;;6216398;23;20012;-73
2023/08/14 09:06:42;;;;;;;7.60;4.63;;;30.30;49.70;;;;;;6216774;23;20312;-73
2023/08/14 09:09:12;;;;;;;6.95;4.45;;;30.30;49.80;;;;;;6216514;23;20000;-72
2023/08/14 09:11:38;;;;;;;8.07;4.50;;;30.30;49.90;;;;;;6216569;23;20003;-73
2023/08/14 09:14:05;;;;;;;8.10;4.32;;;30.30;49.90;;;;;;6189838;23;20012;-73
2023/08/14 09:16:31;;;;;;;7.57;4.15;;;30.40;50.00;;;;;;6216740;23;20064;-73
2023/08/14 09:18:58;;;;;;;6.32;3.85;;;30.40;49.80;;;;;;6216515;23;20482;-73
2023/08/14 09:21:25;;;;;;;6.82;4.53;;;30.40;49.90;;;;;;6189771;23;20017;-73
2023/08/14 09:23:52;;;;;;;7.82;4.45;;;30.40;49.70;;;;;;6216668;23;20007;-73
2023/08/14 09:26:19;;;;;;;7.18;4.15;;;30.40;49.50;;;;;;6190027;23;19997;-74
2023/08/14 09:28:46;;;;;;;8.88;4.05;;;30.40;49.90;;;;;;6189752;23;20016;-74
2023/08/14 09:31:13;;;;;;;9.52;4.35;;;30.40;49.80;;;;;;6216293;23;20079;-74
2023/08/14 09:33:41;;;;;;;7.90;4.18;;;30.40;49.70;;;;;;6216233;23;20001;-73
2023/08/14 09:36:07;;;;;;;10.75;4.10;;;30.50;49.60;;;;;;6216529;23;20064;-73
2023/08/14 09:38:34;;;;;;;6.43;4.53;;;30.50;49.50;;;;;;6216526;23;20003;-73
2023/08/14 09:41:01;;;;;;;6.95;4.03;;;30.50;49.20;;;;;;6189317;23;20001;-73
2023/08/14 09:43:28;;;;;;;8.15;4.15;;;30.60;49.60;;;;;;6189761;23;20005;-73
2023/08/14 09:45:57;;;;;;;10.02;4.22;;;30.50;49.60;;;;;;6216462;23;20011;-74
2023/08/14 09:48:44;;;;;;;6.82;4.05;;;30.60;49.80;;;;;;6216297;23;20039;-75
2023/08/14 09:51:11;;;;;;;6.53;4.07;;;30.60;49.50;;;;;;6189651;23;20008;-73
2023/08/14 09:53:57;;;;;;;8.60;4.20;;;30.60;49.40;;;;;;6216181;23;20008;-73
2023/08/14 09:56:25;;;;;;;11.30;4.10;;;30.60;48.80;;;;;;6216327;23;20035;-72
2023/08/14 09:58:52;;;;;;;6.60;3.97;;;30.60;49.10;;;;;;6189814;23;20079;-72
2023/08/14 10:01:20;;;;;;;6.53;3.95;;;30.70;49.20;;;;;;6189243;23;20097;-73
2023/08/14 10:03:51;;;;;;;7.75;3.50;;;30.70;49.00;;;;;;6216603;23;20087;-75
2023/08/14 10:06:18;;;;;;;7.32;3.85;;;30.80;48.90;;;;;;6216106;23;19997;-73
2023/08/14 10:08:46;;;;;;;5.22;3.65;;;30.80;48.40;;;;;;6216241;23;20059;-73
2023/08/14 10:11:15;;;;;;;6.30;3.85;;;30.80;48.70;;;;;;6215712;23;19996;-74
2023/08/14 10:13:50;;;;;;;7.05;3.65;;;30.80;48.40;;;;;;6216314;23;20435;-74
2023/08/14 10:16:27;;;;;;;8.25;3.92;;;30.80;48.60;;;;;;6216064;23;20008;-73
2023/08/14 10:19:02;;;;;;;9.88;4.00;;;30.90;48.70;;;;;;6216181;23;20312;-72
2023/08/14 10:21:34;;;;;;;6.50;3.83;;;30.90;48.30;;;;;;6216390;23;20062;-74
2023/08/14 10:24:02;;;;;;;5.47;3.63;;;31.00;48.50;;;;;;6216076;23;20031;-72
2023/08/14 10:26:29;;;;;;;7.82;3.80;;;31.00;48.60;;;;;;6215770;23;20007;-74
2023/08/14 10:28:57;;;;;;;6.85;3.65;;;31.00;47.90;;;;;;6216447;23;20001;-73
2023/08/14 10:31:25;;;;;;;8.82;4.25;;;31.10;48.00;;;;;;6189631;23;20015;-73
2023/08/14 10:33:51;;;;;;;6.18;4.00;;;31.20;48.50;;;;;;6216113;23;20008;-74
2023/08/14 10:36:22;;;;;;;6.82;3.83;;;31.20;48.10;;;;;;6189116;23;20019;-73
2023/08/14 10:38:49;;;;;;;7.97;4.40;;;31.20;48.10;;;;;;6216515;23;20001;-73
2023/08/14 10:41:17;;;;;;;5.90;3.90;;;31.30;48.20;;;;;;6215550;23;20005;-73
2023/08/14 10:43:47;;;;;;;6.72;4.35;;;31.40;48.40;;;;;;6215683;23;20308;-73
2023/08/14 10:46:16;;;;;;;6.03;4.20;;;31.40;48.20;;;;;;6215454;23;20023;-72
2023/08/14 10:48:44;;;;;;;6.03;4.05;;;31.50;48.10;;;;;;6215766;23;20064;-72
2023/08/14 10:51:13;;;;;;;8.38;3.78;;;31.50;48.30;;;;;;6189198;23;20063;-73
2023/08/14 10:53:40;;;;;;;6.65;3.92;;;31.60;47.90;;;;;;6215722;23;20007;-73
2023/08/14 10:56:07;;;;;;;6.72;4.60;;;31.60;48.10;;;;;;6188853;23;20095;-74
2023/08/14 10:58:35;;;;;;;4.85;3.20;;;31.60;47.40;;;;;;6215741;23;20020;-73
2023/08/14 11:01:03;;;;;;;6.25;4.00;;;31.60;47.40;;;;;;6215496;23;20482;-74
2023/08/14 11:03:32;;;;;;;6.20;3.55;;;31.70;48.40;;;;;;6215260;23;20016;-73
2023/08/14 11:05:57;;;;;;;5.97;3.65;;;31.70;48.30;;;;;;6188648;23;20013;-74
2023/08/14 11:08:27;;;;;;;8.50;3.63;;;31.70;48.30;;;;;;6215633;23;20003;-73
2023/08/14 11:10:53;;;;;;;6.00;3.80;;;31.60;48.40;;;;;;6215608;23;20006;-72
2023/08/14 11:13:19;;;;;;;6.13;3.92;;;31.70;48.40;;;;;;6215629;23;19997;-74
2023/08/14 11:15:44;;;;;;;6.13;4.05;;;31.70;48.30;;;;;;6215607;23;20018;-73
2023/08/14 11:18:10;;;;;;;7.45;4.20;;;31.80;48.50;;;;;;6215449;23;20071;-73
2023/08/14 11:20:42;;;;;;;5.85;3.67;;;31.80;48.90;;;;;;6215479;23;20027;-73
2023/08/14 11:23:09;;;;;;;8.45;4.10;;;31.80;48.80;;;;;;6215825;23;20004;-73
2023/08/14 11:25:37;;;;;;;8.60;3.95;;;31.80;48.80;;;;;;6215429;23;20032;-72
2023/08/14 11:28:03;;;;;;;6.75;3.97;;;31.90;49.00;;;;;;6188897;23;20502;-73
2023/08/14 11:30:36;;;;;;;6.68;4.00;;;31.80;48.90;;;;;;6215259;23;20007;-73
2023/08/14 11:33:06;;;;;;;7.15;3.97;;;31.80;49.00;;;;;;6215058;23;20415;-74
2023/08/14 11:35:33;;;;;;;5.65;3.80;;;31.90;49.00;;;;;;6215177;23;20334;-74
2023/08/14 11:37:59;;;;;;;6.90;4.13;;;31.90;49.30;;;;;;6215377;23;20000;-73
2023/08/14 11:40:26;;;;;;;6.70;3.85;;;31.90;49.70;;;;;;6215404;23;20001;-73
2023/08/14 11:42:51;;;;;;;8.82;3.90;;;32.00;49.30;;;;;;6188310;23;20012;-74
2023/08/14 11:45:17;;;;;;;7.78;3.95;;;32.00;49.40;;;;;;6215344;23;20011;-73
2023/08/14 11:47:47;;;;;;;6.53;3.72;;;32.00;49.50;;;;;;6215396;23;20024;-73
2023/08/14 11:50:14;;;;;;;7.78;3.92;;;32.00;49.00;;;;;;6188676;23;20012;-74
2023/08/14 11:52:42;;;;;;;4.82;3.78;;;32.10;49.90;;;;;;6215227;23;19996;-74
2023/08/14 11:55:08;;;;;;;5.10;3.90;;;32.20;50.00;;;;;;6215188;23;20151;-74
2023/08/14 11:57:35;;;;;;;5.80;3.75;;;32.20;49.60;;;;;;6188389;23;20000;-73
2023/08/14 12:00:06;;;;;;;7.18;4.40;;;32.20;49.80;;;;;;6188527;23;20013;-73
2023/08/14 12:02:32;;;;;;;6.65;3.88;;;32.20;49.40;;;;;;6188627;23;20055;-74
2023/08/14 12:05:01;;;;;;;5.35;3.90;;;32.30;49.30;;;;;;6215128;23;20021;-74
2023/08/14 12:07:27;;;;;;;7.28;3.95;;;32.40;49.50;;;;;;6214827;23;20032;-73
2023/08/14 12:09:54;;;;;;;7.38;3.55;;;32.40;49.60;;;;;;6215011;23;20001;-74
2023/08/14 12:12:21;;;;;;;6.70;3.60;;;32.40;48.90;;;;;;6215403;23;20071;-73
2023/08/14 12:14:49;;;;;;;6.18;3.75;;;32.50;50.00;;;;;;6188410;23;20071;-74
2023/08/14 12:17:18;;;;;;;5.55;3.30;;;32.50;49.00;;;;;;6214789;23;19996;-72
2023/08/14 12:19:51;;;;;;;6.40;3.60;;;32.60;48.60;;;;;;6215005;23;20004;-72
2023/08/14 12:22:20;;;;;;;5.00;3.50;;;32.70;48.30;;;;;;6215048;23;20380;-73
2023/08/14 12:24:46;;;;;;;5.13;3.30;;;32.70;48.30;;;;;;6188300;23;20092;-74
2023/08/14 12:27:21;;;;;;;5.43;3.03;;;32.70;47.90;;;;;;6215161;23;20028;-74
2023/08/14 12:29:48;;;;;;;5.85;3.60;;;32.70;46.30;;;;;;6215128;23;20075;-74
2023/08/14 12:32:14;;;;;;;5.22;3.88;;;32.70;47.60;;;;;;6188565;23;20084;-75
2023/08/14 12:34:40;;;;;;;6.85;3.17;;;32.70;47.00;;;;;;6214784;23;20067;-72
2023/08/14 12:37:07;;;;;;;5.68;3.33;;;32.80;46.80;;;;;;6188229;23;20009;-74
2023/08/14 12:39:33;;;;;;;5.25;3.83;;;32.90;46.80;;;;;;6215145;23;20024;-74
2023/08/14 12:42:02;;;;;;;6.13;3.95;;;32.90;46.40;;;;;;6215573;23;20008;-74
2023/08/14 12:44:29;;;;;;;6.60;3.40;;;32.90;46.10;;;;;;6214937;23;20067;-74